createdAt,value
2023-03-07T00:01:05.420Z,30.77
2023-03-07T00:03:32.061Z,29.47
2023-03-07T00:06:06.985Z,28.97
2023-03-07T00:08:33.692Z,28.37
2023-03-07T00:11:01.955Z,28.83
2023-03-07T00:13:32.283Z,28.63
2023-03-07T00:16:03.369Z,28.20
2023-03-07T00:18:31.139Z,29.03
2023-03-07T00:21:02.787Z,29.60
2023-03-07T00:23:29.318Z,28.80
2023-03-07T00:26:00.330Z,28.90
2023-03-07T00:28:26.995Z,28.17
2023-03-07T00:30:53.555Z,28.60
2023-03-07T00:33:20.082Z,29.40
2023-03-07T00:36:00.858Z,27.73
2023-03-07T00:38:29.846Z,29.10
2023-03-07T00:41:00.720Z,28.33
2023-03-07T00:43:27.906Z,28.70
2023-03-07T00:45:55.093Z,28.87
2023-03-07T00:48:23.354Z,28.57
2023-03-07T00:50:50.115Z,27.47
2023-03-07T00:53:16.983Z,24.60
2023-03-07T00:55:53.684Z,21.97
2023-03-07T00:58:20.131Z,22.53
2023-03-07T01:00:46.606Z,21.73
2023-03-07T01:03:13.132Z,21.30
2023-03-07T01:05:40.284Z,20.37
2023-03-07T01:08:06.788Z,17.80
2023-03-07T01:10:33.485Z,17.57
2023-03-07T01:13:00.449Z,16.80
2023-03-07T01:15:27.602Z,17.17
2023-03-07T01:17:54.386Z,16.10
2023-03-07T01:20:20.910Z,16.47
2023-03-07T01:22:47.427Z,16.57
2023-03-07T01:25:15.167Z,18.77
2023-03-07T01:27:41.726Z,17.47
2023-03-07T01:30:09.381Z,17.40
2023-03-07T01:32:35.993Z,18.00
2023-03-07T01:35:02.480Z,17.67
2023-03-07T01:37:28.943Z,17.70
2023-03-07T01:39:55.567Z,15.73
2023-03-07T01:42:22.122Z,15.73
2023-03-07T01:45:35.936Z,17.33
2023-03-07T01:48:02.417Z,17.23
2023-03-07T01:50:28.942Z,18.20
2023-03-07T01:52:58.055Z,17.33
2023-03-07T01:55:27.451Z,18.50
2023-03-07T01:57:55.069Z,18.50
2023-03-07T02:00:28.685Z,18.17
2023-03-07T02:03:10.300Z,17.33
2023-03-07T02:05:43.479Z,17.57
2023-03-07T02:08:12.077Z,18.07
2023-03-07T02:10:39.159Z,21.40
2023-03-07T02:13:05.834Z,21.13
2023-03-07T02:15:34.197Z,21.60
2023-03-07T02:18:00.906Z,21.47
2023-03-07T02:20:39.132Z,21.20
2023-03-07T02:23:08.507Z,21.90
2023-03-07T02:25:49.631Z,22.73
2023-03-07T02:28:17.369Z,23.73
2023-03-07T02:30:57.998Z,23.87
2023-03-07T02:33:25.168Z,25.23
2023-03-07T02:35:57.131Z,25.67
2023-03-07T02:38:24.212Z,26.37
2023-03-07T02:40:52.483Z,25.97
2023-03-07T02:43:19.978Z,26.30
2023-03-07T02:45:46.534Z,27.30
2023-03-07T02:48:13.938Z,27.73
2023-03-07T02:50:40.402Z,30.00
2023-03-07T02:53:06.899Z,29.37
2023-03-07T02:55:33.728Z,31.43
2023-03-07T02:58:00.213Z,31.43
2023-03-07T03:00:26.984Z,32.40
2023-03-07T03:02:53.571Z,35.37
2023-03-07T03:05:20.317Z,35.03
2023-03-07T03:07:46.780Z,35.97
2023-03-07T03:10:13.289Z,37.30
2023-03-07T03:12:39.813Z,41.00
2023-03-07T03:15:07.027Z,42.20
2023-03-07T03:17:33.561Z,50.00
2023-03-07T03:20:00.124Z,46.27
2023-03-07T03:22:26.628Z,37.33
2023-03-07T03:24:53.140Z,47.63
2023-03-07T03:27:19.639Z,42.33
2023-03-07T03:29:46.187Z,36.03
2023-03-07T03:32:12.746Z,45.87
2023-03-07T03:34:39.330Z,41.70
2023-03-07T03:37:07.720Z,39.77
2023-03-07T03:39:34.232Z,40.30
2023-03-07T03:42:00.862Z,47.03
2023-03-07T03:44:27.374Z,40.60
2023-03-07T03:46:53.962Z,42.07
2023-03-07T03:49:20.539Z,40.67
2023-03-07T03:51:46.990Z,48.43
2023-03-07T03:54:13.500Z,41.33
2023-03-07T03:56:40.000Z,41.77
2023-03-07T03:59:06.482Z,41.67
2023-03-07T04:01:32.963Z,39.57
2023-03-07T04:03:59.599Z,38.20
2023-03-07T04:06:31.388Z,41.27
2023-03-07T04:08:58.173Z,36.53
2023-03-07T04:11:25.239Z,47.03
2023-03-07T04:13:52.201Z,49.90
2023-03-07T04:16:19.099Z,34.60
2023-03-07T04:18:45.657Z,38.60
2023-03-07T04:21:12.975Z,38.17
2023-03-07T04:23:39.860Z,43.83
2023-03-07T04:26:08.058Z,43.87
2023-03-07T04:28:45.693Z,41.10
2023-03-07T04:31:16.297Z,49.80
2023-03-07T04:33:43.194Z,42.90
2023-03-07T04:36:10.381Z,41.97
2023-03-07T04:38:39.018Z,38.90
2023-03-07T04:41:06.432Z,40.77
2023-03-07T04:43:32.936Z,39.27
2023-03-07T04:45:59.557Z,42.80
2023-03-07T04:48:26.093Z,38.90
2023-03-07T04:50:52.803Z,38.73
2023-03-07T04:53:19.855Z,38.30
2023-03-07T04:55:46.350Z,39.23
2023-03-07T04:58:13.603Z,37.93
2023-03-07T05:00:44.362Z,41.90
2023-03-07T05:03:11.920Z,39.67
2023-03-07T05:05:38.807Z,39.87
2023-03-07T05:08:05.826Z,36.63
2023-03-07T05:10:33.964Z,40.20
2023-03-07T05:13:00.613Z,38.57
2023-03-07T05:15:27.781Z,38.87
2023-03-07T05:17:54.206Z,41.67
2023-03-07T05:20:20.971Z,41.20
2023-03-07T05:22:47.708Z,41.87
2023-03-07T05:25:14.709Z,42.87
2023-03-07T05:27:41.224Z,43.07
2023-03-07T05:30:08.378Z,46.13
2023-03-07T05:32:35.118Z,48.70
2023-03-07T05:35:01.735Z,44.17
2023-03-07T05:37:28.238Z,38.40
2023-03-07T05:39:54.915Z,38.67
2023-03-07T05:42:21.470Z,37.07
2023-03-07T05:44:48.211Z,40.07
2023-03-07T05:47:15.086Z,40.83
2023-03-07T05:49:41.954Z,43.63
2023-03-07T05:52:08.446Z,45.07
2023-03-07T05:54:34.925Z,44.10
2023-03-07T05:57:01.387Z,44.83
2023-03-07T05:59:27.887Z,45.33
2023-03-07T06:01:54.431Z,45.40
2023-03-07T06:04:21.064Z,44.30
2023-03-07T06:06:47.599Z,45.57
2023-03-07T06:09:14.173Z,44.87
2023-03-07T06:11:41.050Z,44.53
2023-03-07T06:14:07.569Z,45.13
2023-03-07T06:16:34.195Z,42.83
2023-03-07T06:19:00.843Z,43.17
2023-03-07T06:21:27.380Z,44.80
2023-03-07T06:23:53.847Z,41.17
2023-03-07T06:26:20.440Z,43.17
2023-03-07T06:28:46.930Z,39.23
2023-03-07T06:31:16.402Z,38.07
2023-03-07T06:33:43.889Z,36.00
2023-03-07T06:36:12.915Z,34.00
2023-03-07T06:38:40.126Z,36.90
2023-03-07T06:41:06.971Z,35.33
2023-03-07T06:43:33.495Z,37.70
2023-03-07T06:46:00.441Z,37.70
2023-03-07T06:48:27.082Z,36.13
2023-03-07T06:50:53.612Z,35.37
2023-03-07T06:53:20.392Z,36.80
2023-03-07T06:55:50.721Z,34.60
2023-03-07T06:58:17.961Z,36.17
2023-03-07T07:00:44.868Z,35.53
2023-03-07T07:03:16.140Z,35.93
2023-03-07T07:05:42.825Z,34.97
2023-03-07T07:08:09.463Z,36.83
2023-03-07T07:10:36.799Z,31.07
2023-03-07T07:13:04.504Z,30.47
2023-03-07T07:15:32.424Z,30.53
2023-03-07T07:17:58.911Z,30.53
2023-03-07T07:20:25.428Z,30.33
2023-03-07T07:22:51.991Z,31.13
2023-03-07T07:25:18.450Z,28.63
2023-03-07T07:27:44.973Z,26.87
2023-03-07T07:30:12.528Z,27.83
2023-03-07T07:32:39.237Z,26.87
2023-03-07T07:35:06.321Z,25.83
2023-03-07T07:37:32.813Z,25.87
2023-03-07T07:39:59.290Z,28.33
2023-03-07T07:42:25.761Z,26.20
2023-03-07T07:44:52.237Z,25.43
2023-03-07T07:47:18.796Z,24.93
2023-03-07T07:49:45.421Z,23.10
2023-03-07T07:52:11.986Z,21.47
2023-03-07T07:54:38.643Z,21.73
2023-03-07T07:57:05.272Z,19.93
2023-03-07T07:59:34.208Z,20.60
2023-03-07T08:02:01.749Z,20.30
2023-03-07T08:04:28.663Z,19.70
2023-03-07T08:06:55.535Z,19.23
2023-03-07T08:09:22.155Z,20.97
2023-03-07T08:11:48.827Z,20.50
2023-03-07T08:14:16.688Z,18.67
2023-03-07T08:16:43.295Z,19.20
2023-03-07T13:30:05.952Z,15.87
2023-03-07T13:32:50.874Z,15.40
2023-03-07T13:35:32.335Z,15.73
2023-03-07T13:38:11.154Z,16.27
2023-03-07T13:40:43.599Z,15.67
2023-03-07T13:43:19.399Z,15.90
2023-03-07T13:45:47.815Z,15.50
2023-03-07T13:48:20.531Z,15.20
2023-03-07T13:50:53.531Z,15.37
2023-03-07T13:54:00.478Z,15.20
2023-03-07T13:56:29.533Z,14.43
2023-03-07T13:59:13.998Z,14.63
2023-03-07T14:01:45.266Z,15.50
2023-03-07T14:04:36.706Z,15.47
2023-03-07T14:07:16.212Z,15.13
2023-03-07T14:09:45.204Z,14.00
2023-03-07T14:12:38.644Z,14.77
2023-03-07T14:15:36.623Z,14.30
2023-03-07T14:18:27.460Z,14.33
2023-03-07T14:20:56.470Z,14.30
2023-03-07T14:23:34.946Z,13.93
2023-03-07T14:26:27.242Z,12.93
2023-03-07T14:29:24.673Z,12.83
2023-03-07T14:31:53.200Z,13.00
2023-03-07T14:34:34.326Z,13.07
2023-03-07T14:37:04.911Z,11.87
2023-03-07T14:39:46.676Z,12.67
2023-03-07T14:42:36.235Z,12.90
2023-03-07T14:45:08.813Z,12.27
2023-03-07T14:48:23.940Z,12.30
2023-03-07T14:50:50.834Z,11.67
2023-03-07T14:53:28.588Z,12.30
2023-03-07T14:55:55.881Z,16.00
2023-03-07T14:58:32.858Z,11.73
2023-03-07T15:01:03.495Z,12.00
2023-03-07T15:03:30.578Z,12.23
2023-03-07T15:05:59.501Z,12.13
2023-03-07T15:08:31.975Z,11.73
2023-03-07T15:11:34.040Z,11.90
2023-03-07T15:14:39.277Z,11.30
2023-03-07T15:17:12.018Z,11.90
2023-03-07T15:19:42.797Z,11.83
2023-03-07T15:22:29.325Z,11.87
2023-03-07T15:24:55.999Z,10.13
2023-03-07T15:27:25.947Z,10.80
2023-03-07T15:29:52.787Z,10.37
2023-03-07T15:32:37.180Z,11.83
2023-03-07T15:35:17.212Z,10.17
2023-03-07T15:38:02.693Z,10.77
2023-03-07T15:40:36.604Z,10.37
2023-03-07T15:43:04.465Z,10.70
2023-03-07T15:45:39.204Z,10.70
2023-03-07T15:48:32.301Z,9.83
2023-03-07T15:51:01.338Z,9.97
2023-03-07T15:53:33.178Z,10.43
2023-03-07T15:56:01.784Z,10.83
2023-03-07T15:58:28.776Z,10.70
2023-03-07T16:01:21.332Z,10.83
2023-03-07T16:03:58.882Z,10.50
2023-03-07T16:06:45.946Z,10.00
2023-03-07T16:09:17.362Z,10.97
2023-03-07T16:11:45.516Z,10.80
2023-03-07T16:14:27.891Z,10.40
2023-03-07T16:16:57.263Z,10.40
2023-03-07T16:19:23.821Z,10.77
2023-03-07T16:21:50.390Z,10.80
2023-03-07T16:24:16.891Z,11.30
2023-03-07T16:26:44.501Z,12.57
2023-03-07T16:29:19.134Z,12.97
2023-03-07T16:31:46.004Z,11.27
2023-03-07T16:34:21.832Z,11.40
2023-03-07T16:36:48.481Z,10.43
2023-03-07T16:39:17.953Z,10.80
2023-03-07T16:41:46.348Z,11.50
2023-03-07T16:44:21.099Z,10.33
2023-03-07T16:46:56.480Z,10.03
2023-03-07T16:49:23.296Z,11.17
2023-03-07T16:52:04.591Z,10.60
2023-03-07T16:54:31.962Z,11.27
2023-03-07T16:56:58.524Z,10.87
2023-03-07T16:59:28.398Z,10.80
2023-03-07T17:01:55.042Z,11.40
2023-03-07T17:04:21.828Z,11.67
2023-03-07T17:06:57.713Z,10.13
2023-03-07T17:09:27.910Z,11.77
2023-03-07T17:11:54.409Z,11.27
2023-03-07T17:14:21.020Z,11.30
2023-03-07T17:16:49.302Z,11.60
2023-03-07T17:19:34.036Z,11.13
2023-03-07T17:22:01.845Z,11.30
2023-03-07T17:24:29.236Z,11.53
2023-03-07T17:26:56.973Z,12.33
2023-03-07T17:29:34.397Z,11.57
2023-03-07T17:32:01.177Z,11.20
2023-03-07T17:34:29.591Z,11.00
2023-03-07T17:36:57.368Z,10.80
2023-03-07T17:39:24.612Z,11.27
2023-03-07T17:41:51.134Z,10.83
2023-03-07T17:44:18.196Z,10.80
2023-03-07T17:46:45.098Z,11.93
2023-03-07T17:49:11.744Z,10.73
2023-03-07T17:51:38.657Z,11.80
2023-03-07T17:54:08.798Z,11.97
2023-03-07T17:56:36.739Z,12.00
2023-03-07T17:59:04.013Z,11.57
2023-03-07T18:01:31.856Z,12.70
2023-03-07T18:04:00.570Z,11.70
2023-03-07T18:06:27.547Z,12.13
2023-03-07T18:08:54.225Z,11.80
2023-03-07T18:11:20.858Z,12.23
2023-03-07T18:13:47.413Z,11.57
2023-03-07T18:16:14.103Z,11.50
2023-03-07T18:18:57.746Z,10.80
2023-03-07T18:21:25.332Z,11.40
2023-03-07T18:23:52.565Z,12.23
2023-03-07T18:26:20.011Z,10.77
2023-03-07T18:28:48.159Z,11.33
2023-03-07T18:31:25.194Z,11.37
2023-03-07T18:33:53.088Z,10.10
2023-03-07T18:36:21.509Z,11.20
2023-03-07T18:38:48.231Z,12.53
2023-03-07T18:41:25.978Z,12.40
2023-03-07T18:43:53.982Z,11.57
2023-03-07T18:46:22.383Z,11.60
2023-03-07T18:48:49.501Z,11.87
2023-03-07T18:51:18.851Z,11.30
2023-03-07T18:53:45.491Z,11.93
2023-03-07T18:56:14.035Z,11.97
2023-03-07T18:58:41.564Z,12.03
2023-03-07T19:01:15.142Z,12.07
2023-03-07T19:03:42.572Z,11.47
2023-03-07T19:06:09.692Z,11.90
2023-03-07T19:08:36.537Z,11.20
2023-03-07T19:11:04.517Z,11.90
2023-03-07T19:13:31.338Z,12.40
2023-03-07T19:16:24.934Z,11.43
2023-03-07T19:18:51.929Z,11.73
2023-03-07T19:21:20.405Z,11.53
2023-03-07T19:23:48.294Z,11.47
2023-03-07T19:26:18.166Z,11.30
2023-03-07T19:28:46.122Z,10.67
2023-03-07T19:31:16.279Z,10.53
2023-03-07T19:33:43.909Z,10.53
2023-03-07T19:36:16.305Z,10.57
2023-03-07T19:38:43.352Z,11.10
2023-03-07T19:41:12.969Z,10.13
2023-03-07T19:43:40.365Z,9.57
2023-03-07T19:46:08.652Z,10.20
2023-03-07T19:48:35.485Z,10.27
2023-03-07T19:51:02.345Z,10.17
2023-03-07T19:53:28.814Z,10.80
2023-03-07T19:55:55.377Z,10.57
2023-03-07T19:58:22.097Z,10.17
2023-03-07T20:00:48.594Z,10.40
2023-03-07T20:03:17.305Z,10.60
2023-03-07T20:05:45.594Z,10.07
2023-03-07T20:08:12.336Z,10.23
2023-03-07T20:10:39.490Z,9.23
2023-03-07T20:13:06.783Z,8.87
2023-03-07T20:15:34.559Z,9.30
2023-03-07T20:18:04.358Z,9.40
2023-03-07T20:20:31.011Z,9.13
2023-03-07T20:22:58.864Z,9.00
2023-03-07T20:25:29.200Z,9.10
2023-03-07T20:27:55.789Z,9.00
2023-03-07T20:30:22.338Z,9.73
2023-03-07T20:32:48.774Z,8.67
2023-03-07T20:35:16.287Z,8.60
2023-03-07T20:37:42.826Z,7.93
2023-03-07T20:40:09.937Z,7.73
2023-03-07T20:42:36.523Z,6.93
2023-03-07T20:45:03.234Z,7.17
2023-03-07T20:47:29.778Z,7.23
2023-03-07T20:49:56.510Z,7.03
2023-03-07T20:52:24.178Z,8.43
2023-03-07T20:54:50.640Z,7.63
2023-03-07T20:57:17.092Z,6.97
2023-03-07T20:59:43.600Z,8.17
2023-03-07T21:02:11.003Z,8.03
2023-03-07T21:04:37.702Z,7.60
2023-03-07T21:07:04.154Z,7.10
2023-03-07T21:09:30.691Z,7.40
2023-03-07T21:11:57.652Z,7.90
2023-03-07T21:14:26.170Z,7.43
2023-03-07T21:16:52.778Z,6.53
2023-03-07T21:19:20.212Z,7.50
2023-03-07T21:21:46.844Z,8.03
2023-03-07T21:24:16.728Z,7.53
2023-03-07T21:26:43.572Z,7.27
2023-03-07T21:29:10.987Z,7.63
2023-03-07T21:31:38.662Z,6.70
2023-03-07T21:34:07.737Z,7.67
2023-03-07T21:36:34.618Z,7.07
2023-03-07T21:39:04.070Z,7.80
2023-03-07T21:41:30.517Z,7.27
2023-03-07T21:43:57.626Z,7.47
2023-03-07T21:46:25.180Z,7.83
2023-03-07T21:48:51.897Z,7.53
2023-03-07T21:51:19.113Z,7.67
2023-03-07T21:53:45.657Z,6.53
2023-03-07T21:56:17.029Z,6.80
2023-03-07T21:58:47.477Z,7.53
2023-03-07T22:01:26.082Z,7.70
2023-03-07T22:03:54.866Z,8.47
2023-03-07T22:06:22.286Z,7.87
2023-03-07T22:08:48.797Z,8.90
2023-03-07T22:11:16.226Z,10.80
2023-03-07T22:13:43.127Z,8.10
2023-03-07T22:16:17.921Z,8.00
2023-03-07T22:18:44.488Z,7.60
2023-03-07T22:21:17.169Z,7.37
2023-03-07T22:23:43.858Z,7.80
2023-03-07T22:26:11.914Z,6.47
2023-03-07T22:28:40.487Z,4.93
2023-03-07T22:31:11.974Z,3.90
2023-03-07T22:33:38.993Z,2.10
2023-03-07T22:36:06.658Z,1.90
2023-03-07T22:38:33.642Z,2.23
2023-03-07T22:41:01.560Z,1.90
2023-03-07T22:43:30.750Z,2.00
2023-03-07T22:45:57.300Z,1.80
2023-03-07T22:48:23.942Z,1.90
2023-03-07T22:50:50.393Z,1.83
2023-03-07T22:53:16.885Z,1.90
2023-03-07T22:55:43.738Z,2.30
2023-03-07T22:58:11.282Z,2.00
2023-03-07T23:00:40.494Z,1.73
2023-03-07T23:03:07.028Z,1.67
2023-03-07T23:05:33.926Z,1.80
2023-03-07T23:08:01.297Z,2.13
2023-03-07T23:10:28.999Z,2.23
2023-03-07T23:12:55.643Z,2.30
2023-03-07T23:15:23.066Z,2.33
2023-03-07T23:17:49.703Z,2.07
2023-03-07T23:20:18.710Z,2.40
2023-03-07T23:22:46.216Z,2.50
2023-03-07T23:25:15.165Z,2.73
2023-03-07T23:27:42.059Z,2.73
2023-03-07T23:30:09.660Z,3.50
2023-03-07T23:32:36.344Z,2.93
2023-03-07T23:35:03.928Z,2.90
2023-03-07T23:37:30.405Z,3.50
2023-03-07T23:39:58.450Z,2.80
2023-03-07T23:42:25.035Z,3.00
2023-03-07T23:44:51.772Z,3.37
2023-03-07T23:47:18.241Z,3.43
2023-03-07T23:49:44.785Z,3.30
2023-03-07T23:52:11.259Z,3.43
2023-03-07T23:54:37.796Z,3.87
2023-03-07T23:57:04.282Z,3.17
2023-03-07T23:59:30.855Z,3.23
